TimeMDT,TemperatureF,Dew PointF,Humidity,Sea Level PressureIn,VisibilityMPH,Wind Direction,Wind SpeedMPH,Gust SpeedMPH,PrecipitationIn,Events,Conditions,WindDirDegrees,DateUTC
12:00 AM,47,41,71,,,NNW,1.2,,,,,330,2013-05-06 06:00:00
12:00 AM,46.9,40.6,79,-9999,-9999.0,NNW,1.2,-,N/A,,Unknown,330,2013-05-06 06:00:00
1:00 AM,44.2,40.6,87,-9999,-9999.0,Calm,Calm,-,N/A,,Unknown,0,2013-05-06 07:00:00
2:00 AM,42.4,39.0,88,-9999,-9999.0,NNW,1.2,-,N/A,,Unknown,330,2013-05-06 08:00:00
3:00 AM,41.2,37.9,88,-9999,-9999.0,WSW,2.3,-,N/A,,Unknown,240,2013-05-06 09:00:00
4:00 AM,40.8,37.9,89,-9999,-9999.0,West,1.2,-,N/A,,Unknown,280,2013-05-06 10:00:00
5:00 AM,38.7,36.5,92,-9999,-9999.0,NNW,1.2,-,N/A,,Unknown,340,2013-05-06 11:00:00
6:00 AM,38,34,81,,,South,1.2,,,,,170,2013-05-06 12:00:00
6:00 AM,37.6,34.3,88,-9999,-9999.0,South,1.2,-,N/A,,Unknown,170,2013-05-06 12:00:00
7:00 AM,40.6,35.8,83,-9999,-9999.0,Calm,Calm,-,N/A,,Unknown,0,2013-05-06 13:00:00
8:00 AM,55.6,37.0,50,-9999,-9999.0,SW,4.6,-,N/A,,Unknown,230,2013-05-06 14:00:00
9:00 AM,60.8,31.6,33,-9999,-9999.0,SSW,3.5,-,N/A,,Unknown,210,2013-05-06 15:00:00
10:00 AM,67.1,30.4,25,-9999,-9999.0,South,4.6,-,N/A,,Unknown,190,2013-05-06 16:00:00
11:00 AM,72.3,31.3,22,-9999,-9999.0,South,6.9,-,N/A,,Unknown,190,2013-05-06 17:00:00
12:00 PM,78,35,12,,,SSW,9.2,,,,,200,2013-05-06 18:00:00
12:00 PM,78.4,34.5,20,-9999,-9999.0,SSW,9.2,-,N/A,,Unknown,200,2013-05-06 18:00:00
2:00 PM,83.3,26.1,12,-9999,-9999.0,SW,12.7,-,N/A,,Unknown,220,2013-05-06 20:00:00
3:00 PM,84.4,28.4,13,-9999,-9999.0,SSW,11.5,-,N/A,,Unknown,210,2013-05-06 21:00:00
4:00 PM,84.7,27.1,12,-9999,-9999.0,SSW,13.8,-,N/A,,Unknown,210,2013-05-06 22:00:00
5:00 PM,86.0,27.0,12,-9999,-9999.0,SW,11.5,-,N/A,,Unknown,220,2013-05-06 23:00:00
6:00 PM,86,29,6,,,SSW,10.4,,,,,210,2013-05-07 00:00:00
6:00 PM,85.8,28.6,13,-9999,-9999.0,SSW,10.4,-,N/A,,Unknown,210,2013-05-07 00:00:00
7:00 PM,84.2,27.9,13,-9999,-9999.0,South,11.5,-,N/A,,Unknown,190,2013-05-07 01:00:00
8:00 PM,81.0,25.7,13,-9999,-9999.0,SSW,6.9,-,N/A,,Unknown,200,2013-05-07 02:00:00
9:00 PM,79.2,30.6,17,-9999,-9999.0,SW,12.7,-,N/A,,Unknown,230,2013-05-07 03:00:00
10:00 PM,79.9,25.3,13,-9999,-9999.0,WSW,9.2,-,N/A,,Unknown,250,2013-05-07 04:00:00
11:00 PM,74.5,30.7,20,-9999,-9999.0,NNW,16.1,-,N/A,,Unknown,330,2013-05-07 05:00:00